createdAt,value
2019-04-28T00:03:55.137Z,4.07
2019-04-28T00:07:57.343Z,4.77
2019-04-28T00:12:01.739Z,3.97
2019-04-28T00:16:05.162Z,4.57
2019-04-28T00:20:10.701Z,4.23
2019-04-28T00:24:25.506Z,4.87
2019-04-28T00:28:27.764Z,4.73
2019-04-28T00:32:30.528Z,4.33
2019-04-28T00:36:33.806Z,4.20
2019-04-28T00:40:35.893Z,3.80
2019-04-28T00:44:38.019Z,3.60
2019-04-28T00:48:40.937Z,3.30
2019-04-28T00:52:43.300Z,3.13
2019-04-28T00:56:45.502Z,2.90
2019-04-28T01:00:51.280Z,2.57
2019-04-28T01:04:53.562Z,2.17
2019-04-28T01:08:55.995Z,2.27
2019-04-28T01:12:58.391Z,1.50
2019-04-28T01:17:09.760Z,1.33
2019-04-28T01:21:12.022Z,1.70
2019-04-28T01:25:14.449Z,1.40
2019-04-28T01:29:16.653Z,1.80
2019-04-28T01:33:40.674Z,1.30
2019-04-28T01:37:44.483Z,1.50
2019-04-28T01:41:46.616Z,1.60
2019-04-28T01:45:50.258Z,1.00
2019-04-28T01:49:52.683Z,1.00
2019-04-28T01:53:55.127Z,1.50
2019-04-28T01:57:57.263Z,1.13
2019-04-28T02:02:00.163Z,1.13
2019-04-28T02:06:02.655Z,1.00
2019-04-28T02:10:05.078Z,1.10
2019-04-28T02:14:07.409Z,1.20
2019-04-28T02:18:10.000Z,1.00
2019-04-28T02:22:21.443Z,1.07
2019-04-28T02:26:23.814Z,1.07
2019-04-28T02:30:41.164Z,0.93
2019-04-28T02:34:31.073Z,0.80
2019-04-28T02:38:34.405Z,1.13
2019-04-28T02:42:36.951Z,1.37
2019-04-28T02:46:40.825Z,1.03
2019-04-28T02:51:10.830Z,1.13
2019-04-28T02:55:12.296Z,1.00
2019-04-28T02:59:14.430Z,0.87
2019-04-28T03:03:16.566Z,1.13
2019-04-28T03:07:21.683Z,1.10
2019-04-28T03:11:22.999Z,1.00
2019-04-28T03:15:25.113Z,0.73
2019-04-28T03:19:27.337Z,0.97
2019-04-28T03:23:31.071Z,1.73
2019-04-28T03:27:51.744Z,1.10
2019-04-28T03:32:26.970Z,0.97
2019-04-28T03:36:15.182Z,1.00
2019-04-28T03:40:13.442Z,0.80
2019-04-28T03:44:15.744Z,1.00
2019-04-28T03:48:17.999Z,0.53
2019-04-28T03:52:21.351Z,0.77
2019-04-28T03:56:23.535Z,0.57
2019-04-28T04:00:25.682Z,0.80
2019-04-28T04:04:27.939Z,0.80
2019-04-28T04:08:31.115Z,0.53
2019-04-28T04:12:42.590Z,0.70
2019-04-28T04:16:55.880Z,0.60
2019-04-28T04:21:00.631Z,0.80
2019-04-28T04:25:02.106Z,0.73
2019-04-28T04:29:04.562Z,0.80
2019-04-28T04:33:06.591Z,0.50
2019-04-28T04:37:12.207Z,0.40
2019-04-28T04:41:12.816Z,0.63
2019-04-28T04:45:15.016Z,0.40
2019-04-28T04:49:21.224Z,0.50
2019-04-28T04:53:21.662Z,0.80
2019-04-28T04:57:24.327Z,0.43
2019-04-28T05:01:52.280Z,0.57
2019-04-28T05:05:54.315Z,0.50
2019-04-28T05:09:59.458Z,0.60
2019-04-28T05:14:01.738Z,0.70
2019-04-28T05:18:04.143Z,0.40
2019-04-28T05:22:07.183Z,0.60
2019-04-28T05:26:11.371Z,0.70
2019-04-28T05:30:15.615Z,0.50
2019-04-28T05:34:18.197Z,0.50
2019-04-28T05:38:20.552Z,0.50
2019-04-28T05:42:22.689Z,0.60
2019-04-28T05:46:25.003Z,0.70
2019-04-28T05:50:33.024Z,0.40
2019-04-28T05:54:51.215Z,0.50
2019-04-28T05:58:56.841Z,0.57
2019-04-28T06:03:00.687Z,0.93
2019-04-28T06:07:20.273Z,0.70
2019-04-28T06:11:39.817Z,0.90
2019-04-28T06:15:41.907Z,0.70
2019-04-28T06:19:43.969Z,0.60
2019-04-28T06:23:46.206Z,0.63
2019-04-28T06:27:48.343Z,0.63
2019-04-28T06:31:50.566Z,0.90
2019-04-28T06:35:52.705Z,0.80
2019-04-28T06:39:54.802Z,0.80
2019-04-28T06:43:56.958Z,0.87
2019-04-28T06:47:59.440Z,0.80
2019-04-28T06:52:01.624Z,0.50
2019-04-28T06:56:03.858Z,0.70
2019-04-28T07:00:06.770Z,1.17
2019-04-28T07:04:09.219Z,0.57
2019-04-28T07:08:13.907Z,0.43
2019-04-28T07:12:15.707Z,0.70
2019-04-28T07:16:18.022Z,0.80
2019-04-28T07:20:39.138Z,0.70
2019-04-28T07:24:41.413Z,0.70
2019-04-28T07:28:43.610Z,1.20
2019-04-28T07:32:46.135Z,0.70
2019-04-28T07:36:48.461Z,0.70
2019-04-28T07:40:50.597Z,0.80
2019-04-28T07:44:52.926Z,0.70
2019-04-28T07:48:55.285Z,0.70
2019-04-28T07:53:04.156Z,0.70
2019-04-28T07:57:06.305Z,0.83
2019-04-28T08:01:09.977Z,0.70
2019-04-28T08:05:12.382Z,0.80
2019-04-28T08:09:17.399Z,0.87
2019-04-28T08:13:19.272Z,0.70
2019-04-28T08:17:21.123Z,0.90
2019-04-28T08:21:22.952Z,0.83
2019-04-28T08:25:26.043Z,0.90
2019-04-28T08:29:27.858Z,0.87
2019-04-28T08:33:43.562Z,0.77
2019-04-28T08:37:45.552Z,0.73
2019-04-28T08:41:47.451Z,0.97
2019-04-28T08:45:49.268Z,0.90
2019-04-28T08:49:51.160Z,0.77
2019-04-28T08:53:53.273Z,0.73
2019-04-28T08:57:55.516Z,1.00
2019-04-28T09:01:57.647Z,1.00
2019-04-28T09:06:01.516Z,0.90
2019-04-28T09:10:06.359Z,1.20
2019-04-28T09:14:08.602Z,1.40
2019-04-28T09:18:10.759Z,0.80
2019-04-28T09:22:13.098Z,1.20
2019-04-28T09:26:15.225Z,0.90
2019-04-28T09:30:17.462Z,0.90
2019-04-28T09:34:28.062Z,1.10
2019-04-28T09:38:23.698Z,1.00
2019-04-28T09:42:49.181Z,1.20
2019-04-28T09:46:51.258Z,1.10
2019-04-28T09:50:53.371Z,1.00
2019-04-28T09:54:55.601Z,0.97
2019-04-28T09:58:57.849Z,1.20
2019-04-28T10:03:00.062Z,1.30
2019-04-28T10:07:02.210Z,0.90
2019-04-28T10:11:04.514Z,1.10
2019-04-28T10:15:07.269Z,0.93
2019-04-28T10:19:09.632Z,0.87
2019-04-28T10:23:11.839Z,1.20
2019-04-28T10:27:14.330Z,0.90
2019-04-28T10:31:16.501Z,0.90
2019-04-28T10:35:20.045Z,1.00
2019-04-28T10:39:36.975Z,1.50
2019-04-28T10:43:39.330Z,0.90
2019-04-28T10:47:42.621Z,0.77
2019-04-28T10:51:45.050Z,0.90
2019-04-28T10:55:47.328Z,0.80
2019-04-28T10:59:49.462Z,1.10
2019-04-28T11:03:53.281Z,1.00
2019-04-28T11:07:55.978Z,0.93
2019-04-28T11:11:58.339Z,0.80
2019-04-28T11:16:00.575Z,1.07
2019-04-28T11:20:02.663Z,1.20
2019-04-28T11:24:04.943Z,1.07
2019-04-28T11:28:07.073Z,0.70
2019-04-28T11:32:09.412Z,1.30
2019-04-28T11:36:11.472Z,1.47
2019-04-28T11:40:13.855Z,1.10
2019-04-28T11:44:15.888Z,0.93
2019-04-28T11:48:19.879Z,1.00
2019-04-28T11:52:22.414Z,1.13
2019-04-28T11:56:24.652Z,0.93
2019-04-28T12:00:29.875Z,0.90
2019-04-28T12:04:35.559Z,0.90
2019-04-28T12:08:38.265Z,1.03
2019-04-28T12:12:50.711Z,1.17
2019-04-28T12:17:06.161Z,0.93
2019-04-28T12:21:08.589Z,1.30
2019-04-28T12:25:11.629Z,1.10
2019-04-28T12:29:13.838Z,1.20
2019-04-28T12:33:19.445Z,1.07
2019-04-28T12:37:22.042Z,1.10
2019-04-28T12:41:24.098Z,1.17
2019-04-28T12:45:34.850Z,1.33
2019-04-28T12:49:36.776Z,1.33
2019-04-28T12:53:39.324Z,0.90
2019-04-28T12:57:41.607Z,1.10
2019-04-28T13:02:01.356Z,1.00
2019-04-28T13:06:06.540Z,1.37
2019-04-28T13:10:09.630Z,1.33
2019-04-28T13:14:11.926Z,1.30
2019-04-28T13:18:14.480Z,1.10
2019-04-28T13:22:16.689Z,1.23
2019-04-28T13:26:19.371Z,1.10
2019-04-28T13:30:23.351Z,1.00
2019-04-28T13:34:27.387Z,1.13
2019-04-28T13:38:29.427Z,1.10
2019-04-28T13:42:31.739Z,1.10
2019-04-28T13:46:34.120Z,1.10
2019-04-28T13:50:39.958Z,0.90
2019-04-28T13:54:42.254Z,1.20
2019-04-28T13:59:12.305Z,1.30
2019-04-28T14:03:26.863Z,1.10
2019-04-28T14:07:29.042Z,1.20
2019-04-28T14:11:31.273Z,1.40
2019-04-28T14:15:33.598Z,1.30
2019-04-28T14:19:35.656Z,1.13
2019-04-28T14:23:37.977Z,1.20
2019-04-28T14:27:41.296Z,1.20
2019-04-28T14:31:43.325Z,1.30
2019-04-28T14:35:45.519Z,1.30
2019-04-28T14:39:47.819Z,1.40
2019-04-28T14:43:51.050Z,1.47
2019-04-28T14:47:54.344Z,1.50
2019-04-28T14:51:56.367Z,1.33
2019-04-28T14:55:58.732Z,1.40
2019-04-28T15:00:01.028Z,1.47
2019-04-28T15:04:08.563Z,1.50
2019-04-28T15:08:29.720Z,1.63
2019-04-28T15:12:32.320Z,1.60
2019-04-28T15:16:34.746Z,1.60
2019-04-28T15:20:36.964Z,1.63
2019-04-28T15:24:39.798Z,1.70
2019-04-28T15:28:42.076Z,1.43
2019-04-28T15:32:44.331Z,1.90
2019-04-28T15:36:46.680Z,1.70
2019-04-28T15:40:48.869Z,1.70
2019-04-28T15:44:51.032Z,1.60
2019-04-28T15:48:53.146Z,1.80
2019-04-28T15:52:55.440Z,1.60
2019-04-28T15:56:57.710Z,1.63
2019-04-28T16:01:00.059Z,2.50
2019-04-28T16:05:01.919Z,1.50
2019-04-28T16:09:08.503Z,1.57
2019-04-28T16:13:11.275Z,1.50
2019-04-28T16:17:13.450Z,1.37
2019-04-28T16:21:16.083Z,1.70
2019-04-28T16:25:17.971Z,1.53
2019-04-28T16:29:19.970Z,1.50
2019-04-28T16:33:21.887Z,1.73
2019-04-28T16:37:23.713Z,1.60
2019-04-28T16:41:32.275Z,1.40
2019-04-28T16:45:34.193Z,1.70
2019-04-28T16:49:36.070Z,1.73
2019-04-28T16:53:37.904Z,1.73
2019-04-28T16:57:47.189Z,1.67
2019-04-28T17:02:11.463Z,1.37
2019-04-28T17:06:13.449Z,1.70
2019-04-28T17:10:15.505Z,1.87
2019-04-28T17:14:17.484Z,1.77
2019-04-28T17:18:19.405Z,1.70
2019-04-28T17:22:21.794Z,2.00
2019-04-28T17:26:23.622Z,1.80
2019-04-28T17:30:30.782Z,1.90
2019-04-28T17:34:33.085Z,1.43
2019-04-28T17:38:35.115Z,1.63
2019-04-28T17:42:39.302Z,2.33
2019-04-28T17:46:42.601Z,1.37
2019-04-28T17:50:45.695Z,1.83
2019-04-28T17:54:49.277Z,1.57
2019-04-28T17:58:51.076Z,1.77
2019-04-28T18:03:01.025Z,1.77
2019-04-28T18:07:07.786Z,1.60
2019-04-28T18:11:09.949Z,1.50
2019-04-28T18:15:26.501Z,2.00
2019-04-28T18:19:28.709Z,1.73
2019-04-28T18:23:30.748Z,1.90
2019-04-28T18:27:32.747Z,1.87
2019-04-28T18:31:56.632Z,1.93
2019-04-28T18:36:22.975Z,1.77
2019-04-28T18:40:37.850Z,1.80
2019-04-28T18:44:40.490Z,1.77
2019-04-28T18:48:42.418Z,1.37
2019-04-28T18:52:47.008Z,1.60
2019-04-28T18:56:49.710Z,1.90
2019-04-28T19:01:13.948Z,1.90
2019-04-28T19:05:16.252Z,1.90
2019-04-28T19:09:37.040Z,1.67
2019-04-28T19:13:43.852Z,1.70
2019-04-28T19:18:04.689Z,2.00
2019-04-28T19:22:06.599Z,1.90
2019-04-28T19:26:08.573Z,1.90
2019-04-28T19:30:10.774Z,1.90
2019-04-28T19:34:12.960Z,2.07
2019-04-28T19:38:14.941Z,1.97
2019-04-28T19:42:17.137Z,1.80
2019-04-28T19:46:19.570Z,1.93
2019-04-28T19:50:21.449Z,1.67
2019-04-28T19:54:27.133Z,1.63
2019-04-28T19:58:33.386Z,1.97
2019-04-28T20:02:35.777Z,1.73
2019-04-28T20:06:38.391Z,1.90
2019-04-28T20:10:40.516Z,1.90
2019-04-28T20:14:42.428Z,1.50
2019-04-28T20:18:44.484Z,1.67
2019-04-28T20:22:46.345Z,3.00
2019-04-28T20:26:49.424Z,1.40
2019-04-28T20:30:52.222Z,2.00
2019-04-28T20:34:55.801Z,1.67
2019-04-28T20:39:02.048Z,2.07
2019-04-28T20:43:11.452Z,1.87
2019-04-28T20:47:15.232Z,1.97
2019-04-28T20:51:18.442Z,1.37
2019-04-28T20:55:20.712Z,2.13
2019-04-28T20:59:22.824Z,1.63
2019-04-28T21:03:25.069Z,1.90
2019-04-28T21:07:26.972Z,1.50
2019-04-28T21:11:29.405Z,1.80
2019-04-28T21:15:31.464Z,1.90
2019-04-28T21:19:33.992Z,1.90
2019-04-28T21:23:36.341Z,1.90
2019-04-28T21:27:38.641Z,2.40
2019-04-28T21:31:40.800Z,2.20
2019-04-28T21:35:43.280Z,2.17
2019-04-28T21:39:45.549Z,2.30
2019-04-28T21:43:54.010Z,2.60
2019-04-28T21:47:56.368Z,1.83
2019-04-28T21:51:58.911Z,2.07
2019-04-28T21:56:01.349Z,2.20
2019-04-28T22:00:04.064Z,2.00
2019-04-28T22:04:05.781Z,2.30
2019-04-28T22:08:08.002Z,2.20
2019-04-28T22:12:11.893Z,2.40
2019-04-28T22:16:14.104Z,2.27
2019-04-28T22:20:16.194Z,2.33
2019-04-28T22:24:41.455Z,2.43
2019-04-28T22:28:43.581Z,2.70
2019-04-28T22:32:46.075Z,2.70
2019-04-28T22:36:48.529Z,2.40
2019-04-28T22:40:50.760Z,2.53
2019-04-28T22:44:54.234Z,2.73
2019-04-28T22:48:58.207Z,2.37
2019-04-28T22:53:00.509Z,2.77
2019-04-28T22:57:17.672Z,2.57
2019-04-28T23:01:24.435Z,2.50
2019-04-28T23:05:26.753Z,2.30
2019-04-28T23:09:29.203Z,1.97
2019-04-28T23:13:31.510Z,2.20
2019-04-28T23:17:33.649Z,2.60
2019-04-28T23:21:55.152Z,2.47
2019-04-28T23:25:57.501Z,2.43
2019-04-28T23:29:59.813Z,2.17
2019-04-28T23:34:01.974Z,2.40
2019-04-28T23:38:04.643Z,2.80
2019-04-28T23:42:16.575Z,2.80
2019-04-28T23:46:20.587Z,2.63
2019-04-28T23:50:30.132Z,2.40
2019-04-28T23:54:32.571Z,2.50
2019-04-28T23:58:34.864Z,2.70
